Time;durP1;ratioP1;P1;durP2;ratioP2;P2;SDS_P1;SDS_P2;PMS_P1;PMS_P2;Temp;Humidity;BMP_temperature;BMP_pressure;BME280_temperature;BME280_humidity;BME280_pressure;Samples;Min_cycle;Max_cycle;Signal;HPM_P1;HPM_P2
2024/04/10 00:00:12;;;;;;;5.30;3.63;;;16.90;71.10;;;;;;6758676;26;20283;-65
2024/04/10 00:03:16;;;;;;;7.07;3.50;;;16.80;70.60;;;;;;6778842;26;20474;-64
2024/04/10 00:06:28;;;;;;;7.03;3.80;;;16.90;71.90;;;;;;6775864;26;20513;-65
2024/04/10 00:09:41;;;;;;;6.30;3.50;;;16.80;71.00;;;;;;6766976;26;20340;-63
2024/04/10 00:12:50;;;;;;;8.63;4.20;;;16.70;71.60;;;;;;6774132;26;20762;-64
2024/04/10 00:16:02;;;;;;;10.37;5.13;;;16.70;72.20;;;;;;6770118;26;20717;-65
2024/04/10 00:19:10;;;;;;;7.80;4.03;;;16.60;72.30;;;;;;6767147;26;20813;-64
2024/04/10 00:22:13;;;;;;;8.40;4.43;;;16.60;72.50;;;;;;6765027;26;20469;-64
2024/04/10 00:25:28;;;;;;;6.17;4.60;;;16.60;72.90;;;;;;6763175;26;20476;-64
2024/04/10 00:28:32;;;;;;;7.00;3.80;;;16.60;73.20;;;;;;6788670;26;20481;-64
2024/04/10 00:31:47;;;;;;;7.10;3.87;;;16.50;73.50;;;;;;6782495;26;20837;-64
2024/04/10 00:34:58;;;;;;;9.10;4.23;;;16.50;73.90;;;;;;6741340;26;20474;-64
2024/04/10 00:38:02;;;;;;;9.70;3.90;;;16.50;74.30;;;;;;6743599;26;20525;-64
2024/04/10 00:41:25;;;;;;;9.20;4.13;;;16.40;75.30;;;;;;6766606;26;20227;-64
2024/04/10 00:44:31;;;;;;;12.53;4.80;;;16.40;75.50;;;;;;6787974;26;20549;-64
2024/04/10 00:47:50;;;;;;;8.90;4.50;;;16.40;75.90;;;;;;6776313;26;20502;-64
2024/04/10 00:51:11;;;;;;;11.57;4.20;;;16.40;76.50;;;;;;6761275;26;20577;-64
2024/04/10 00:54:20;;;;;;;9.07;4.10;;;16.40;76.90;;;;;;6762930;26;20537;-64
2024/04/10 00:57:37;;;;;;;7.70;5.07;;;16.40;77.00;;;;;;6749495;26;20465;-64
2024/04/10 01:00:42;;;;;;;9.70;4.30;;;16.40;77.20;;;;;;6752196;26;20534;-63
2024/04/10 01:03:49;;;;;;;13.40;5.07;;;16.40;77.70;;;;;;6723725;26;21005;-64
2024/04/10 01:06:58;;;;;;;7.57;4.07;;;16.40;77.80;;;;;;6723781;26;20467;-64
2024/04/10 01:10:05;;;;;;;5.80;3.80;;;16.40;78.20;;;;;;6724120;26;21024;-64
2024/04/10 01:13:11;;;;;;;7.70;4.30;;;16.40;78.50;;;;;;6741752;26;20517;-64
2024/04/10 01:16:29;;;;;;;10.90;4.00;;;16.40;78.80;;;;;;6766812;26;20688;-64
2024/04/10 01:19:33;;;;;;;8.83;4.53;;;16.40;79.20;;;;;;6769469;26;20593;-65
2024/04/10 01:22:41;;;;;;;9.50;4.17;;;16.30;79.50;;;;;;6769845;26;20512;-64
2024/04/10 01:26:01;;;;;;;8.97;4.00;;;16.30;80.00;;;;;;6769300;26;20485;-63
2024/04/10 01:29:07;;;;;;;6.47;4.10;;;16.20;80.10;;;;;;6767005;26;20600;-65
2024/04/10 01:32:17;;;;;;;5.33;4.07;;;16.20;80.20;;;;;;6767625;26;20517;-64
2024/04/10 01:35:22;;;;;;;7.57;4.10;;;16.10;80.40;;;;;;6767376;26;20489;-65
2024/04/10 01:38:34;;;;;;;9.83;3.63;;;16.10;79.90;;;;;;6768512;26;20470;-64
2024/04/10 01:41:50;;;;;;;7.60;3.60;;;16.10;78.90;;;;;;6767923;26;20516;-63
2024/04/10 01:44:58;;;;;;;4.93;2.70;;;16.00;78.30;;;;;;6752617;26;20473;-64
2024/04/10 01:48:02;;;;;;;7.57;3.00;;;16.00;77.80;;;;;;6767669;26;20537;-64
2024/04/10 01:51:11;;;;;;;4.40;3.37;;;16.00;77.30;;;;;;6735053;26;20830;-63
2024/04/10 01:54:16;;;;;;;3.90;2.73;;;15.90;76.70;;;;;;6757050;26;20485;-65
2024/04/10 01:57:40;;;;;;;4.47;3.13;;;15.90;76.20;;;;;;6768016;26;20470;-65
2024/04/10 02:00:44;;;;;;;4.67;2.97;;;15.90;75.90;;;;;;6766396;26;20541;-64
2024/04/10 02:03:54;;;;;;;6.57;3.07;;;15.80;75.30;;;;;;6768382;26;20572;-64
2024/04/10 02:07:00;;;;;;;4.10;2.70;;;15.80;75.00;;;;;;6768426;26;20897;-64
2024/04/10 02:10:15;;;;;;;4.63;2.40;;;15.90;74.80;;;;;;6767205;26;20457;-64
2024/04/10 02:13:33;;;;;;;7.13;2.40;;;15.80;74.70;;;;;;6767381;26;20974;-63
2024/04/10 02:16:46;;;;;;;6.53;2.20;;;15.80;74.10;;;;;;6812342;26;20521;-64
2024/04/10 02:19:50;;;;;;;3.50;2.30;;;15.80;73.60;;;;;;6813095;26;20515;-64
2024/04/10 02:23:08;;;;;;;4.57;2.37;;;15.80;73.20;;;;;;6811939;26;20610;-64
2024/04/10 02:26:13;;;;;;;4.57;1.80;;;15.80;72.60;;;;;;6811782;26;20475;-64
2024/04/10 02:29:33;;;;;;;8.70;2.10;;;15.80;71.90;;;;;;6812540;26;20456;-64
2024/04/10 02:32:41;;;;;;;3.33;2.33;;;15.80;71.70;;;;;;6812269;26;20629;-65
2024/04/10 02:35:48;;;;;;;4.53;2.73;;;15.80;71.50;;;;;;6811634;26;20551;-64
2024/04/10 02:39:04;;;;;;;2.60;2.10;;;15.80;71.20;;;;;;6811851;26;20519;-64
2024/04/10 02:42:14;;;;;;;6.13;2.03;;;15.80;71.10;;;;;;6811919;26;20460;-62
2024/04/10 02:45:37;;;;;;;11.67;3.30;;;15.80;70.40;;;;;;6811239;26;20471;-62
2024/04/10 02:48:42;;;;;;;13.83;2.63;;;15.80;69.90;;;;;;6796551;26;20524;-62
2024/04/10 02:51:49;;;;;;;7.37;2.50;;;15.80;69.30;;;;;;6811168;26;20447;-62
2024/04/10 02:54:55;;;;;;;16.30;3.30;;;15.70;69.00;;;;;;6811511;26;20479;-62
2024/04/10 02:58:06;;;;;;;3.70;1.53;;;15.70;68.60;;;;;;6808375;26;20468;-62
2024/04/10 03:01:26;;;;;;;6.80;1.90;;;15.80;68.50;;;;;;6782320;26;20452;-62
2024/04/10 03:04:32;;;;;;;4.53;1.90;;;15.80;68.20;;;;;;6811178;26;20472;-61
2024/04/10 03:07:46;;;;;;;7.67;1.90;;;15.90;67.80;;;;;;6792612;26;20456;-62
2024/04/10 03:10:52;;;;;;;3.33;1.40;;;15.90;67.40;;;;;;6800015;26;21246;-61
2024/04/10 03:14:02;;;;;;;2.37;1.33;;;16.00;67.10;;;;;;6809989;26;20468;-62
2024/04/10 03:17:16;;;;;;;4.33;1.47;;;16.00;66.80;;;;;;6811884;26;20476;-62
2024/04/10 03:20:22;;;;;;;5.07;1.70;;;16.00;65.70;;;;;;6811539;26;20598;-64
2024/04/10 03:23:31;;;;;;;2.67;1.47;;;16.00;65.40;;;;;;6799758;26;20588;-62
2024/04/10 03:26:35;;;;;;;2.40;1.23;;;16.00;64.90;;;;;;6810859;26;20543;-62
2024/04/10 03:29:49;;;;;;;8.70;1.83;;;16.00;64.30;;;;;;6810805;26;20472;-62
2024/04/10 03:33:11;;;;;;;5.13;1.67;;;16.00;64.00;;;;;;6811007;26;21274;-62
2024/04/10 03:36:19;;;;;;;3.17;1.40;;;16.00;63.80;;;;;;6810331;26;20467;-62
2024/04/10 03:39:23;;;;;;;5.93;1.20;;;15.90;63.30;;;;;;6810815;26;20766;-62
2024/04/10 03:42:40;;;;;;;3.60;1.27;;;15.90;63.20;;;;;;6761700;26;20594;-61
2024/04/10 03:45:49;;;;;;;3.20;0.83;;;15.90;62.90;;;;;;6812007;26;20464;-61
2024/04/10 03:49:01;;;;;;;1.97;1.80;;;15.90;62.70;;;;;;6813143;26;20464;-62
2024/04/10 03:52:12;;;;;;;3.30;1.67;;;15.90;62.70;;;;;;6812590;26;20965;-62
2024/04/10 03:55:21;;;;;;;2.87;1.60;;;15.90;61.90;;;;;;6813528;26;20472;-62
2024/04/10 03:58:29;;;;;;;3.10;1.30;;;15.90;61.50;;;;;;6778507;26;20960;-62
2024/04/10 04:01:35;;;;;;;8.60;1.30;;;15.90;61.20;;;;;;6809697;26;20456;-62
2024/04/10 04:04:58;;;;;;;4.23;1.27;;;15.80;60.90;;;;;;6810339;26;20464;-63
2024/04/10 04:08:03;;;;;;;6.47;1.80;;;15.90;61.60;;;;;;6809765;26;20512;-63
2024/04/10 04:11:12;;;;;;;3.30;1.03;;;15.80;60.30;;;;;;6809986;26;20508;-63
2024/04/10 04:14:27;;;;;;;1.53;0.93;;;15.80;60.20;;;;;;6809734;26;20476;-61
2024/04/10 04:17:31;;;;;;;2.00;0.97;;;15.70;60.00;;;;;;6800877;26;20539;-63
2024/04/10 04:21:01;;;;;;;1.90;1.00;;;15.70;59.70;;;;;;6810075;26;20512;-62
2024/04/10 04:24:06;;;;;;;4.57;0.90;;;15.60;59.60;;;;;;6814117;26;20668;-62
2024/04/10 04:27:19;;;;;;;2.70;0.83;;;15.70;59.40;;;;;;6810704;26;20475;-62
2024/04/10 04:30:23;;;;;;;3.13;1.00;;;15.60;59.00;;;;;;6768539;26;20485;-62
2024/04/10 04:33:31;;;;;;;2.10;0.90;;;15.60;59.00;;;;;;6791310;26;20554;-63
2024/04/10 04:36:50;;;;;;;2.20;0.90;;;15.60;59.00;;;;;;6812633;26;20472;-62
2024/04/10 04:40:06;;;;;;;3.50;1.30;;;15.60;59.00;;;;;;6801620;26;21092;-63
2024/04/10 04:43:12;;;;;;;2.50;1.13;;;15.60;59.60;;;;;;6797974;26;20535;-63
2024/04/10 04:46:20;;;;;;;1.07;0.73;;;15.60;58.60;;;;;;6816485;26;20746;-62
2024/04/10 04:49:23;;;;;;;3.90;1.37;;;15.50;58.50;;;;;;6815637;26;20548;-61
2024/04/10 04:52:44;;;;;;;1.60;0.90;;;15.50;58.30;;;;;;6815661;26;20459;-62
2024/04/10 04:55:51;;;;;;;6.63;1.33;;;15.60;58.40;;;;;;6814807;26;20464;-62
2024/04/10 04:58:55;;;;;;;5.10;1.10;;;15.50;58.30;;;;;;6814683;26;20578;-62
2024/04/10 05:02:03;;;;;;;2.40;0.73;;;15.50;58.10;;;;;;6814244;26;20475;-63
2024/04/10 05:05:12;;;;;;;2.20;0.90;;;15.60;57.80;;;;;;6815048;26;20475;-62
2024/04/10 05:08:35;;;;;;;3.07;1.20;;;15.50;57.70;;;;;;6813889;26;20932;-62
2024/04/10 05:12:00;;;;;;;1.53;0.90;;;15.60;57.70;;;;;;6813345;26;20531;-63
2024/04/10 05:15:11;;;;;;;5.27;1.40;;;15.60;57.50;;;;;;6774704;26;20544;-62
2024/04/10 05:18:29;;;;;;;2.50;1.07;;;15.60;57.00;;;;;;6769015;26;20521;-62
2024/04/10 05:21:33;;;;;;;2.67;1.10;;;15.60;56.50;;;;;;6802759;26;20472;-62
2024/04/10 05:24:56;;;;;;;2.00;1.10;;;15.70;56.40;;;;;;6814809;26;20785;-62
2024/04/10 05:28:01;;;;;;;2.27;0.80;;;15.80;56.00;;;;;;6814863;26;20578;-62
2024/04/10 05:31:09;;;;;;;2.27;0.97;;;15.80;55.40;;;;;;6813815;26;20456;-62
2024/04/10 05:34:12;;;;;;;2.70;1.60;;;15.90;55.20;;;;;;6812186;26;20483;-61
2024/04/10 05:37:23;;;;;;;3.70;1.37;;;15.70;55.20;;;;;;6813422;26;20496;-62
2024/04/10 05:40:33;;;;;;;3.53;1.27;;;15.80;55.10;;;;;;6814446;26;20786;-62
2024/04/10 05:43:40;;;;;;;4.00;1.83;;;15.80;54.90;;;;;;6814544;26;20456;-63
2024/04/10 05:46:46;;;;;;;6.50;1.27;;;15.80;54.70;;;;;;6813900;26;20567;-62
2024/04/10 05:49:55;;;;;;;4.40;1.17;;;15.80;54.80;;;;;;6813851;26;20614;-62
2024/04/10 05:53:09;;;;;;;2.40;0.93;;;15.80;54.40;;;;;;6813056;26;20566;-63
2024/04/10 05:56:18;;;;;;;2.50;0.93;;;15.80;54.10;;;;;;6812121;26;20464;-62
2024/04/10 05:59:31;;;;;;;3.13;1.20;;;15.80;54.00;;;;;;6812617;26;20697;-61
2024/04/10 06:02:38;;;;;;;9.47;1.77;;;15.90;53.80;;;;;;6812659;26;20476;-62
2024/04/10 06:05:44;;;;;;;2.20;1.07;;;16.00;53.80;;;;;;6812906;26;20528;-63
2024/04/10 06:08:52;;;;;;;2.87;0.90;;;16.20;53.10;;;;;;6813086;26;20460;-63
2024/04/10 06:12:18;;;;;;;2.90;1.17;;;16.30;52.80;;;;;;6802220;26;20509;-62
2024/04/10 06:15:24;;;;;;;5.33;1.57;;;16.30;52.30;;;;;;6810185;26;20888;-62
2024/04/10 06:18:35;;;;;;;6.80;2.33;;;16.40;51.80;;;;;;6812646;26;20472;-62
2024/04/10 06:21:45;;;;;;;13.60;3.10;;;16.60;51.50;;;;;;6812286;26;20467;-62
2024/04/10 06:24:54;;;;;;;29.40;4.20;;;16.80;51.30;;;;;;6811976;26;21005;-62
2024/04/10 06:28:00;;;;;;;34.60;4.97;;;17.10;50.80;;;;;;6811902;26;20468;-62
2024/04/10 06:31:09;;;;;;;3.40;1.83;;;17.50;50.00;;;;;;6812941;26;20327;-63
2024/04/10 06:34:14;;;;;;;4.63;1.50;;;18.10;49.40;;;;;;6783841;26;20235;-62
2024/04/10 06:37:22;;;;;;;4.70;1.10;;;19.30;47.40;;;;;;6812811;26;20596;-63
2024/04/10 06:40:25;;;;;;;6.47;1.07;;;19.90;45.00;;;;;;6813354;26;20296;-62
2024/04/10 06:43:49;;;;;;;3.97;0.90;;;20.10;44.80;;;;;;6811784;26;20748;-62
2024/04/10 06:46:56;;;;;;;8.87;1.10;;;21.00;43.70;;;;;;6810666;26;20302;-63
2024/04/10 06:50:19;;;;;;;1.30;0.60;;;21.50;42.00;;;;;;6812166;26;20274;-63
2024/04/10 06:53:28;;;;;;;3.20;0.83;;;21.40;41.60;;;;;;6810857;26;20841;-62
2024/04/10 06:56:32;;;;;;;7.13;1.13;;;21.30;41.80;;;;;;6808751;26;20231;-63
2024/04/10 06:59:55;;;;;;;1.10;1.00;;;20.90;41.60;;;;;;6810937;26;20508;-62
2024/04/10 07:03:08;;;;;;;4.70;0.90;;;20.70;41.90;;;;;;6809801;26;20813;-62
2024/04/10 07:06:15;;;;;;;1.13;0.50;;;20.30;42.20;;;;;;6793757;26;20236;-62
2024/04/10 07:09:25;;;;;;;4.60;0.93;;;19.80;42.80;;;;;;6769115;26;20274;-62
2024/04/10 07:12:36;;;;;;;2.17;1.10;;;19.50;43.40;;;;;;6785843;26;20235;-62
2024/04/10 07:15:59;;;;;;;1.70;0.70;;;19.30;43.80;;;;;;6812115;26;20263;-62
2024/04/10 07:19:17;;;;;;;1.50;0.87;;;19.00;43.90;;;;;;6806110;26;20288;-63
2024/04/10 07:22:23;;;;;;;17.00;2.43;;;18.80;44.00;;;;;;6792328;26;20227;-63
2024/04/10 07:25:32;;;;;;;1.33;0.60;;;18.70;44.00;;;;;;6811970;26;20239;-63
2024/04/10 07:28:38;;;;;;;3.07;0.70;;;18.50;44.40;;;;;;6810227;26;20247;-62
2024/04/10 07:31:56;;;;;;;1.90;0.73;;;18.40;44.50;;;;;;6810501;26;20368;-62
2024/04/10 07:35:06;;;;;;;3.20;0.73;;;18.50;44.90;;;;;;6817320;26;20286;-63
2024/04/10 07:38:10;;;;;;;2.53;0.77;;;18.60;44.90;;;;;;6798841;26;20748;-63
2024/04/10 07:41:18;;;;;;;2.50;1.00;;;18.60;44.70;;;;;;6810583;26;20903;-62
2024/04/10 07:44:24;;;;;;;1.80;0.90;;;18.50;44.80;;;;;;6807363;26;20247;-60
2024/04/10 07:47:40;;;;;;;1.53;0.70;;;18.60;44.70;;;;;;6812144;26;20308;-62
2024/04/10 07:50:44;;;;;;;2.23;0.63;;;18.70;44.00;;;;;;6815895;26;20569;-62
2024/04/10 07:53:54;;;;;;;1.80;0.87;;;18.80;44.00;;;;;;6812008;26;20346;-62
2024/04/10 07:57:07;;;;;;;1.00;0.50;;;18.90;43.70;;;;;;6808676;26;20277;-62
2024/04/10 08:00:14;;;;;;;1.13;0.97;;;19.10;43.90;;;;;;6815309;26;20545;-64
2024/04/10 08:03:38;;;;;;;3.13;0.80;;;19.30;43.10;;;;;;6810776;26;20243;-62
2024/04/10 08:06:42;;;;;;;1.67;0.67;;;19.40;42.70;;;;;;6816325;26;20247;-65
2024/04/10 08:09:57;;;;;;;1.53;0.67;;;19.50;42.20;;;;;;6817943;26;20696;-63
2024/04/10 08:13:05;;;;;;;1.63;0.50;;;19.70;42.00;;;;;;6816064;26;20761;-63
2024/04/10 08:16:15;;;;;;;2.80;0.73;;;19.50;41.90;;;;;;6816588;26;20243;-63
2024/04/10 08:19:38;;;;;;;3.00;0.90;;;19.70;42.00;;;;;;6814376;26;20708;-64
2024/04/10 08:22:53;;;;;;;1.53;1.00;;;20.10;41.30;;;;;;6815369;26;20389;-61
2024/04/10 08:25:58;;;;;;;2.03;0.80;;;20.40;40.50;;;;;;6815299;26;20251;-63
2024/04/10 08:29:08;;;;;;;2.70;0.63;;;20.40;40.30;;;;;;6815883;26;20616;-63
2024/04/10 08:32:13;;;;;;;2.50;1.00;;;20.20;40.60;;;;;;6817575;26;20230;-63
2024/04/10 08:35:28;;;;;;;2.03;0.70;;;20.20;40.60;;;;;;6817627;26;20246;-64
2024/04/10 08:38:33;;;;;;;1.77;0.80;;;20.20;40.50;;;;;;6816234;26;20305;-63
2024/04/10 08:41:42;;;;;;;5.87;1.13;;;20.10;40.50;;;;;;6815949;26;20246;-64
2024/04/10 08:44:51;;;;;;;2.90;0.80;;;19.80;40.60;;;;;;6799765;26;20236;-63
2024/04/10 08:48:00;;;;;;;1.27;0.73;;;19.60;41.50;;;;;;6770798;26;20270;-64
2024/04/10 08:51:11;;;;;;;4.10;0.60;;;19.50;41.50;;;;;;6771721;26;20262;-63
2024/04/10 08:54:25;;;;;;;7.30;1.00;;;19.50;41.20;;;;;;6816857;26;20243;-63
2024/04/10 08:57:32;;;;;;;18.40;1.80;;;19.80;41.50;;;;;;6810116;26;20243;-63
2024/04/10 09:00:46;;;;;;;7.80;0.80;;;20.20;41.20;;;;;;6806270;26;20286;-63
2024/04/10 09:03:54;;;;;;;6.97;1.30;;;20.60;40.90;;;;;;6786930;26;20336;-62
2024/04/10 09:07:17;;;;;;;5.27;0.60;;;21.30;40.00;;;;;;6813650;26;20579;-62
2024/04/10 09:10:24;;;;;;;8.00;1.27;;;21.70;38.50;;;;;;6768884;26;20220;-63
2024/04/10 09:13:35;;;;;;;5.60;0.73;;;22.00;38.40;;;;;;6766808;26;20270;-64
2024/04/10 09:16:45;;;;;;;3.97;1.00;;;22.10;37.50;;;;;;6769935;26;20567;-63
2024/04/10 09:20:01;;;;;;;2.30;0.80;;;22.60;37.00;;;;;;6823538;26;20226;-63
2024/04/10 09:23:23;;;;;;;5.53;0.97;;;23.10;36.70;;;;;;6786083;26;20234;-63
2024/04/10 09:26:26;;;;;;;2.50;0.77;;;23.20;36.30;;;;;;6814818;26;20234;-63
2024/04/10 09:29:35;;;;;;;1.57;0.70;;;23.20;36.10;;;;;;6813438;26;20548;-64
2024/04/10 09:32:39;;;;;;;2.80;0.70;;;22.90;35.80;;;;;;6814021;26;20370;-63
2024/04/10 09:35:47;;;;;;;2.50;0.50;;;22.70;35.70;;;;;;6807918;26;20347;-63
2024/04/10 09:39:07;;;;;;;2.50;1.13;;;22.50;35.90;;;;;;6766800;26;20405;-63
2024/04/10 09:42:51;;;;;;;2.73;0.60;;;22.30;36.00;;;;;;6809818;26;20285;-63
2024/04/10 09:46:03;;;;;;;2.33;0.60;;;22.20;36.30;;;;;;6808688;26;20709;-63
2024/04/10 09:49:15;;;;;;;1.77;0.50;;;22.10;36.40;;;;;;6814000;26;20277;-62
2024/04/10 09:52:20;;;;;;;1.03;0.40;;;21.90;36.30;;;;;;6808900;26;20282;-63
2024/04/10 09:55:38;;;;;;;8.67;0.97;;;21.60;37.00;;;;;;6813999;26;20292;-63
2024/04/10 09:58:46;;;;;;;1.77;0.80;;;21.40;37.10;;;;;;6813792;26;20274;-64
2024/04/10 10:01:54;;;;;;;2.47;0.90;;;21.30;37.10;;;;;;6814799;26;20269;-63
2024/04/10 10:05:08;;;;;;;2.23;0.73;;;21.20;37.40;;;;;;6813347;26;20320;-63
2024/04/10 10:08:18;;;;;;;0.83;0.57;;;20.90;37.90;;;;;;6813917;26;20278;-62
2024/04/10 10:11:28;;;;;;;1.47;0.77;;;20.90;38.10;;;;;;6813261;26;20270;-63
2024/04/10 10:14:41;;;;;;;5.30;1.17;;;20.70;37.90;;;;;;6813745;26;20588;-64
2024/04/10 10:17:58;;;;;;;2.27;1.10;;;20.80;38.40;;;;;;6811528;26;20243;-61
2024/04/10 10:21:20;;;;;;;1.60;0.80;;;20.60;38.20;;;;;;6812439;26;20263;-62
2024/04/10 10:24:29;;;;;;;2.50;0.80;;;20.30;38.40;;;;;;6788851;26;20758;-62
2024/04/10 10:27:43;;;;;;;1.43;1.10;;;20.20;39.00;;;;;;6769600;26;20278;-62
2024/04/10 10:30:49;;;;;;;6.23;1.77;;;20.10;39.10;;;;;;6770774;26;20224;-62
2024/04/10 10:34:10;;;;;;;5.20;0.83;;;20.00;39.30;;;;;;6805403;26;20227;-60
2024/04/10 10:37:17;;;;;;;0.83;0.70;;;19.90;39.20;;;;;;6783054;26;20341;-61
2024/04/10 10:40:29;;;;;;;3.23;0.80;;;19.90;39.60;;;;;;6813515;26;20327;-60
2024/04/10 10:43:59;;;;;;;0.90;0.80;;;20.20;39.70;;;;;;6814030;26;20226;-61
2024/04/10 10:47:18;;;;;;;3.77;0.70;;;20.40;39.70;;;;;;6812111;26;20856;-61
2024/04/10 10:50:23;;;;;;;4.37;0.77;;;20.70;39.00;;;;;;6772135;26;20681;-60
2024/04/10 10:53:33;;;;;;;0.90;0.80;;;21.40;38.10;;;;;;6812273;26;20276;-62
2024/04/10 10:56:37;;;;;;;2.50;1.33;;;22.10;37.50;;;;;;6812992;26;20235;-63
2024/04/10 10:59:50;;;;;;;1.13;0.70;;;22.70;36.40;;;;;;6812730;26;20231;-62
2024/04/10 11:02:56;;;;;;;1.17;0.70;;;23.40;35.70;;;;;;6813691;26;20257;-62
2024/04/10 11:06:12;;;;;;;3.30;1.03;;;24.30;34.40;;;;;;6812096;26;20238;-62
2024/04/10 11:09:28;;;;;;;1.07;0.67;;;25.30;32.80;;;;;;6813388;26;20261;-61
2024/04/10 11:12:33;;;;;;;2.17;0.90;;;26.40;31.30;;;;;;6810972;26;20698;-60
2024/04/10 11:16:00;;;;;;;1.77;0.80;;;27.20;30.10;;;;;;6787614;26;20311;-59
2024/04/10 11:19:06;;;;;;;3.70;0.90;;;27.50;29.90;;;;;;6801615;26;20506;-60
2024/04/10 11:22:21;;;;;;;4.80;0.83;;;27.70;29.30;;;;;;6813043;26;20328;-62
2024/04/10 11:25:28;;;;;;;3.60;1.53;;;28.30;29.40;;;;;;6813381;26;20281;-61
2024/04/10 11:28:36;;;;;;;3.92;0.88;;;29.50;28.10;;;;;;6814265;26;20729;-61
2024/04/10 11:31:58;;;;;;;2.50;0.60;;;30.50;27.40;;;;;;6812714;26;20297;-61
2024/04/10 11:35:13;;;;;;;3.10;1.35;;;30.90;26.00;;;;;;6793988;26;20250;-61
2024/04/10 11:38:17;;;;;;;4.22;0.80;;;30.60;25.90;;;;;;6808787;26;20663;-61
2024/04/10 11:41:23;;;;;;;1.40;0.60;;;29.50;26.00;;;;;;6792461;26;20260;-64
2024/04/10 11:44:27;;;;;;;1.47;0.60;;;28.40;26.70;;;;;;6773527;26;20353;-62
2024/04/10 11:48:03;;;;;;;3.73;0.50;;;27.80;27.40;;;;;;6798499;26;20238;-62
2024/04/10 11:51:15;;;;;;;1.70;0.80;;;27.50;27.90;;;;;;6810305;26;20233;-62
2024/04/10 11:54:23;;;;;;;1.40;0.73;;;27.40;28.10;;;;;;6794247;26;20234;-63
2024/04/10 11:57:26;;;;;;;4.87;0.80;;;26.70;28.50;;;;;;6813676;26;20226;-63
2024/04/10 12:00:40;;;;;;;2.63;0.90;;;26.30;28.90;;;;;;6814233;26;20230;-61
2024/04/10 12:04:04;;;;;;;4.57;0.97;;;25.70;29.50;;;;;;6813169;26;20222;-63
2024/04/10 12:07:21;;;;;;;2.60;0.50;;;25.30;29.80;;;;;;6813595;26;20278;-62
2024/04/10 12:10:31;;;;;;;2.40;0.60;;;25.40;29.90;;;;;;6812426;26;20353;-62
2024/04/10 12:13:40;;;;;;;3.30;0.83;;;25.40;29.80;;;;;;6811805;26;20269;-62
2024/04/10 12:16:53;;;;;;;1.83;0.70;;;25.20;30.00;;;;;;6811984;26;20235;-62
2024/04/10 12:20:03;;;;;;;2.13;0.77;;;25.10;30.10;;;;;;6811683;26;20250;-63
2024/04/10 12:23:14;;;;;;;2.40;0.73;;;25.30;30.30;;;;;;6778151;26;20254;-66
2024/04/10 12:26:21;;;;;;;1.00;0.67;;;25.50;30.10;;;;;;6795785;26;20559;-63
2024/04/10 12:29:29;;;;;;;1.30;0.70;;;25.50;29.90;;;;;;6783117;26;20282;-62
2024/04/10 12:32:32;;;;;;;1.97;0.90;;;25.60;30.20;;;;;;6796993;26;20281;-61
2024/04/10 12:39:18;;;;;;;1.73;0.90;;;25.70;29.60;;;;;;6807006;26;20602;-63
2024/04/10 12:42:32;;;;;;;1.20;0.87;;;25.90;29.70;;;;;;6771783;26;20242;-63
2024/04/10 12:45:46;;;;;;;6.60;1.10;;;26.30;29.60;;;;;;6787989;26;20237;-63
2024/04/10 12:48:50;;;;;;;1.33;0.90;;;26.80;29.20;;;;;;6811613;26;20347;-62
2024/04/10 12:52:02;;;;;;;1.73;0.80;;;27.00;28.60;;;;;;6812293;26;20284;-62
2024/04/10 12:55:07;;;;;;;2.23;0.70;;;27.00;28.40;;;;;;6814242;26;20238;-62
2024/04/10 12:58:16;;;;;;;3.70;0.87;;;26.80;28.30;;;;;;6812703;26;20234;-63
2024/04/10 13:01:19;;;;;;;2.13;0.83;;;26.20;29.00;;;;;;6793154;26;20240;-63
2024/04/10 13:04:27;;;;;;;5.30;1.00;;;26.00;29.40;;;;;;6752496;26;20344;-62
2024/04/10 13:07:44;;;;;;;3.93;0.97;;;25.50;29.70;;;;;;6806649;26;20293;-63
2024/04/10 13:10:58;;;;;;;1.90;1.00;;;25.20;30.40;;;;;;6814540;26;20743;-62
2024/04/10 13:14:05;;;;;;;2.03;0.90;;;24.70;30.80;;;;;;6812180;26;20363;-62
2024/04/10 13:17:14;;;;;;;1.50;0.80;;;24.40;31.20;;;;;;6814045;26;20644;-63
2024/04/10 13:20:19;;;;;;;1.50;0.90;;;24.20;31.30;;;;;;6814395;26;20282;-62
2024/04/10 13:23:34;;;;;;;1.60;0.63;;;24.10;31.20;;;;;;6813446;26;20238;-62
2024/04/10 13:26:39;;;;;;;3.00;1.00;;;24.00;31.80;;;;;;6813194;26;20239;-62
2024/04/10 13:29:52;;;;;;;5.33;1.47;;;24.00;32.00;;;;;;6768414;26;20220;-62
2024/04/10 13:33:00;;;;;;;1.60;0.90;;;24.10;32.00;;;;;;6768838;26;20291;-63
2024/04/10 13:36:11;;;;;;;2.00;0.90;;;24.10;32.20;;;;;;6767570;26;20263;-62
2024/04/10 13:39:24;;;;;;;6.70;0.90;;;24.20;32.10;;;;;;6772899;26;20345;-62
2024/04/10 13:42:28;;;;;;;6.33;1.37;;;24.40;32.00;;;;;;6795413;26;20584;-63
2024/04/10 13:45:43;;;;;;;8.03;1.03;;;24.50;31.30;;;;;;6814456;26;20323;-62
2024/04/10 13:48:48;;;;;;;2.17;0.77;;;24.60;31.30;;;;;;6815407;26;20311;-63
2024/04/10 13:51:55;;;;;;;1.37;0.60;;;24.60;31.00;;;;;;6817679;26;20280;-62
2024/04/10 13:55:15;;;;;;;2.50;0.70;;;24.50;31.00;;;;;;6814988;26;20239;-63
2024/04/10 13:58:23;;;;;;;3.57;0.90;;;24.60;31.10;;;;;;6806687;26;20223;-62
2024/04/10 14:01:26;;;;;;;8.20;1.37;;;24.20;31.00;;;;;;6813218;26;20278;-63
2024/04/10 14:04:33;;;;;;;10.87;1.50;;;23.70;31.40;;;;;;6813590;26;20242;-63
2024/04/10 14:07:38;;;;;;;1.57;0.73;;;23.20;31.80;;;;;;6812991;26;20265;-62
2024/04/10 14:11:04;;;;;;;3.93;0.87;;;22.60;32.90;;;;;;6813107;26;20362;-62
2024/04/10 14:14:18;;;;;;;5.17;1.20;;;22.20;33.20;;;;;;6811932;26;20316;-62
2024/04/10 14:17:23;;;;;;;3.23;1.00;;;22.10;33.90;;;;;;6813000;26;20351;-63
2024/04/10 14:20:41;;;;;;;1.00;0.80;;;21.80;34.10;;;;;;6813635;26;20269;-61
2024/04/10 14:23:47;;;;;;;0.90;0.57;;;21.90;34.30;;;;;;6812411;26;20274;-63
2024/04/10 14:27:03;;;;;;;10.13;1.83;;;22.00;34.30;;;;;;6813287;26;20681;-62
2024/04/10 14:30:08;;;;;;;4.57;1.53;;;22.00;34.70;;;;;;6811837;26;20316;-62
2024/04/10 14:33:17;;;;;;;2.77;1.20;;;21.90;34.40;;;;;;6812408;26;20238;-61
2024/04/10 14:36:21;;;;;;;4.23;0.90;;;21.60;34.90;;;;;;6812661;26;20282;-62
2024/04/10 14:39:33;;;;;;;2.20;1.00;;;21.60;34.90;;;;;;6812623;26;20356;-62
2024/04/10 14:42:56;;;;;;;1.03;0.67;;;21.60;34.80;;;;;;6812768;26;20226;-62
2024/04/10 14:46:12;;;;;;;1.90;0.80;;;21.40;35.10;;;;;;6814108;26;20238;-62
2024/04/10 14:49:25;;;;;;;2.20;0.60;;;21.20;35.70;;;;;;6813349;26;20230;-63
2024/04/10 14:52:37;;;;;;;3.20;1.00;;;21.10;35.80;;;;;;6812790;26;20543;-62
2024/04/10 14:55:42;;;;;;;4.47;1.20;;;21.00;36.50;;;;;;6812438;26;20277;-63
2024/04/10 14:59:07;;;;;;;5.10;0.90;;;20.50;36.20;;;;;;6813190;26;20848;-62
2024/04/10 15:02:11;;;;;;;2.57;1.10;;;20.40;36.90;;;;;;6812722;26;20231;-63
2024/04/10 15:05:25;;;;;;;1.27;0.70;;;20.40;36.80;;;;;;6812831;26;20238;-62
2024/04/10 15:08:30;;;;;;;3.40;1.20;;;20.30;37.20;;;;;;6812967;26;20231;-63
2024/04/10 15:11:38;;;;;;;2.10;1.10;;;20.30;37.40;;;;;;6811831;26;20223;-62
2024/04/10 15:14:44;;;;;;;1.13;0.70;;;20.30;37.30;;;;;;6813703;26;20238;-63
2024/04/10 15:17:59;;;;;;;1.70;0.90;;;20.00;37.90;;;;;;6813047;26;20820;-61
2024/04/10 15:21:05;;;;;;;4.60;1.10;;;20.00;38.20;;;;;;6813403;26;20227;-62
2024/04/10 15:24:15;;;;;;;2.90;0.80;;;20.00;38.10;;;;;;6801329;26;20303;-62
2024/04/10 15:27:23;;;;;;;1.77;1.10;;;19.90;38.20;;;;;;6814753;26;20274;-62
2024/04/10 15:30:33;;;;;;;1.00;0.60;;;19.90;38.40;;;;;;6814529;26;20227;-62
2024/04/10 15:33:45;;;;;;;3.00;0.90;;;20.00;38.20;;;;;;6813792;26;20239;-63
2024/04/10 15:36:50;;;;;;;1.53;0.90;;;19.90;38.20;;;;;;6812981;26;20764;-62
2024/04/10 15:39:59;;;;;;;1.23;1.00;;;19.80;38.30;;;;;;6813119;26;20227;-64
2024/04/10 15:43:02;;;;;;;1.40;1.13;;;19.70;38.70;;;;;;6809017;26;20669;-61
2024/04/10 15:46:18;;;;;;;2.53;1.03;;;19.60;38.70;;;;;;6809053;26;20320;-62
2024/04/10 15:49:21;;;;;;;3.03;0.87;;;19.50;38.50;;;;;;6811627;26;20270;-62
2024/04/10 15:52:27;;;;;;;1.53;0.73;;;19.40;38.70;;;;;;6718375;26;20290;-62
2024/04/10 15:56:00;;;;;;;4.70;1.33;;;19.30;39.10;;;;;;6741601;26;20638;-62
2024/04/10 15:59:08;;;;;;;3.90;1.40;;;19.10;39.50;;;;;;6811747;26;20223;-62
2024/04/10 16:02:18;;;;;;;2.23;0.93;;;18.90;39.60;;;;;;6811619;26;20226;-62
2024/04/10 16:05:28;;;;;;;4.00;0.80;;;18.80;39.70;;;;;;6811102;26;20239;-63
2024/04/10 16:08:34;;;;;;;2.87;1.10;;;18.70;40.00;;;;;;6811522;26;20223;-61
2024/04/10 16:11:40;;;;;;;1.50;1.10;;;18.50;40.20;;;;;;6810908;26;20274;-62
2024/04/10 16:14:53;;;;;;;3.00;0.80;;;18.40;40.60;;;;;;6810679;26;20865;-62
2024/04/10 16:18:12;;;;;;;3.07;1.13;;;18.20;41.10;;;;;;6811574;26;20600;-62
2024/04/10 16:21:21;;;;;;;1.20;0.80;;;18.10;41.40;;;;;;6814103;26;20224;-62
2024/04/10 16:24:26;;;;;;;1.17;0.93;;;18.00;41.50;;;;;;6814359;26;20766;-62
2024/04/10 16:27:33;;;;;;;1.43;0.97;;;17.90;41.80;;;;;;6770203;26;20228;-63
2024/04/10 16:30:37;;;;;;;3.33;1.17;;;17.70;42.00;;;;;;6774034;26;20332;-63
2024/04/10 16:34:08;;;;;;;1.13;0.77;;;17.60;42.30;;;;;;6813612;26;20226;-62